Terminal Aerodrome Forecast
Issued by NWS

Home | Current Version | Previous Version | Text Only | Print | Product List | Glossary On
Versions: 1 2 3 4 5 6 7 8 9 10 11 12 13 14 15 16 17 18 19 20 21 22 23 24 25 26
786
FTUS46 KMTR 221740
TAFSFO
TAF
KSFO 221740Z 2218/2324 27007KT P6SM FEW010 BKN040 BKN060
     FM222100 28009KT P6SM SCT030 SCT050
     FM230300 27008KT P6SM SCT030 SCT050
     FM230800 05004KT P6SM BKN012
     FM231800 08003KT P6SM BKN012
     FM232100 VRB05KT P6SM SCT015=

USA.gov is the U.S. government's official web portal to all federal, state and local government web resources and services.